Time;durP1;ratioP1;P1;durP2;ratioP2;P2;SDS_P1;SDS_P2;PMS_P1;PMS_P2;Temp;Humidity;BMP_temperature;BMP_pressure;BME280_temperature;BME280_humidity;BME280_pressure;Samples;Min_cycle;Max_cycle;Signal;HPM_P1;HPM_P2
2021/03/27 00:01:49;;;;;;;23.00;17.55;;;11.50;1.00;;;;;;5083531;28;20055;-79
2021/03/27 00:04:36;;;;;;;22.30;17.42;;;11.60;1.00;;;;;;5073630;28;20025;-79
2021/03/27 00:07:26;;;;;;;22.52;17.90;;;11.40;1.00;;;;;;5091633;28;20021;-79
2021/03/27 00:09:58;;;;;;;24.20;16.88;;;11.20;1.00;;;;;;5099535;28;20459;-79
2021/03/27 00:12:26;;;;;;;20.50;17.08;;;11.20;1.00;;;;;;5104755;28;20387;-79
2021/03/27 00:15:08;;;;;;;24.17;18.45;;;11.30;1.00;;;;;;5092416;28;20072;-79
2021/03/27 00:17:40;;;;;;;18.60;15.95;;;11.30;1.00;;;;;;5092565;28;20035;-79
2021/03/27 00:20:17;;;;;;;24.77;17.25;;;11.40;99.90;;;;;;5092718;28;20051;-79
2021/03/27 00:22:50;;;;;;;22.83;17.08;;;11.40;99.90;;;;;;5092598;28;20016;-79
2021/03/27 00:25:46;;;;;;;20.70;16.73;;;11.40;99.90;;;;;;5091585;28;20050;-79
2021/03/27 00:28:22;;;;;;;18.08;15.20;;;11.50;99.90;;;;;;5095112;28;20054;-79
2021/03/27 00:30:49;;;;;;;19.50;16.35;;;11.50;99.90;;;;;;5095532;28;20051;-79
2021/03/27 00:33:17;;;;;;;22.02;17.98;;;11.60;99.90;;;;;;5094514;28;20027;-79
2021/03/27 00:36:03;;;;;;;21.20;16.95;;;11.60;99.90;;;;;;5095438;28;20388;-79
2021/03/27 00:38:35;;;;;;;21.27;16.35;;;11.70;99.90;;;;;;5094497;28;20523;-79
2021/03/27 00:41:01;;;;;;;19.35;15.55;;;11.70;99.90;;;;;;5095455;28;20559;-79
2021/03/27 00:43:39;;;;;;;17.20;14.95;;;11.80;99.90;;;;;;5095571;28;20102;-79
2021/03/27 00:46:08;;;;;;;18.55;14.82;;;11.80;99.90;;;;;;5095474;28;20408;-79
2021/03/27 00:48:56;;;;;;;17.50;15.18;;;11.80;99.90;;;;;;5095021;28;20051;-79
2021/03/27 00:51:40;;;;;;;17.27;13.40;;;11.90;99.90;;;;;;5087529;28;20103;-79
2021/03/27 00:54:25;;;;;;;18.92;14.13;;;11.90;99.90;;;;;;5095123;28;20016;-79
2021/03/27 00:57:02;;;;;;;17.10;13.25;;;11.90;99.90;;;;;;5095217;28;20027;-79
2021/03/27 00:59:37;;;;;;;15.80;13.18;;;11.90;99.90;;;;;;5097087;28;20028;-79
2021/03/27 01:02:08;;;;;;;16.02;13.00;;;11.80;99.90;;;;;;5094864;28;20106;-79
2021/03/27 01:04:35;;;;;;;13.68;12.23;;;11.80;99.90;;;;;;5094529;28;20119;-78
2021/03/27 01:07:05;;;;;;;17.58;13.43;;;11.80;99.90;;;;;;5093060;28;20416;-78
2021/03/27 01:09:42;;;;;;;14.93;12.48;;;11.80;99.90;;;;;;5094306;28;20466;-78
2021/03/27 01:12:12;;;;;;;13.45;10.93;;;11.90;99.90;;;;;;5094722;28;20020;-78
2021/03/27 01:14:43;;;;;;;13.13;11.73;;;11.90;99.90;;;;;;5094762;28;20020;-78
2021/03/27 01:17:13;;;;;;;13.65;11.93;;;11.90;99.90;;;;;;5094816;28;20108;-78
2021/03/27 01:19:47;;;;;;;13.50;12.10;;;11.90;99.90;;;;;;5094903;28;20134;-78
2021/03/27 01:22:14;;;;;;;14.10;12.55;;;11.90;99.90;;;;;;5095040;28;20043;-78
2021/03/27 01:24:41;;;;;;;14.70;13.10;;;11.80;99.90;;;;;;5094857;28;20047;-78
2021/03/27 01:27:22;;;;;;;14.77;11.77;;;11.90;99.90;;;;;;5094916;28;20020;-78
2021/03/27 01:30:05;;;;;;;15.48;13.30;;;11.80;99.90;;;;;;5094802;28;20377;-78
2021/03/27 01:32:41;;;;;;;14.57;12.93;;;11.80;99.90;;;;;;5094850;28;20422;-78
2021/03/27 01:35:22;;;;;;;15.30;12.48;;;11.80;99.90;;;;;;5094575;28;20032;-78
2021/03/27 01:37:56;;;;;;;14.63;11.45;;;11.80;99.90;;;;;;5093712;28;20103;-78
2021/03/27 01:40:47;;;;;;;14.50;11.93;;;11.80;99.90;;;;;;5094463;28;20051;-78
2021/03/27 01:43:38;;;;;;;14.02;11.85;;;11.80;99.90;;;;;;5081768;28;20016;-78
2021/03/27 01:46:40;;;;;;;14.60;11.43;;;11.80;99.90;;;;;;5079608;28;20400;-78
2021/03/27 01:49:25;;;;;;;12.77;10.70;;;11.80;99.90;;;;;;5079084;28;20380;-78
2021/03/27 01:52:03;;;;;;;15.30;11.35;;;11.80;99.90;;;;;;5080960;28;20020;-78
2021/03/27 01:54:31;;;;;;;12.70;11.40;;;11.80;99.90;;;;;;5090163;28;20114;-78
2021/03/27 01:57:06;;;;;;;12.98;11.30;;;11.90;99.90;;;;;;5078852;28;20560;-78
2021/03/27 01:59:42;;;;;;;12.88;10.30;;;11.90;99.90;;;;;;5093792;28;20156;-78
2021/03/27 02:02:18;;;;;;;13.40;11.27;;;11.90;99.90;;;;;;5093672;28;20039;-78
2021/03/27 02:05:09;;;;;;;12.32;11.02;;;11.90;99.90;;;;;;5088523;28;20495;-78
2021/03/27 02:08:09;;;;;;;11.43;10.27;;;11.90;99.90;;;;;;5091438;28;20056;-78
2021/03/27 02:11:17;;;;;;;13.32;10.35;;;12.00;99.90;;;;;;5089758;28;20403;-78
2021/03/27 02:14:00;;;;;;;11.40;10.02;;;12.00;99.90;;;;;;5072137;28;20497;-78
2021/03/27 02:16:59;;;;;;;12.55;9.82;;;12.00;99.90;;;;;;5089101;28;20119;-78
2021/03/27 02:19:43;;;;;;;11.82;9.70;;;12.00;99.90;;;;;;5073014;28;20573;-78
2021/03/27 02:22:30;;;;;;;10.73;8.88;;;12.00;99.90;;;;;;5087908;28;20031;-78
2021/03/27 02:25:05;;;;;;;10.27;9.15;;;12.00;99.90;;;;;;5076899;28;20024;-78
2021/03/27 02:27:43;;;;;;;11.30;9.82;;;12.00;99.90;;;;;;5093006;28;20017;-78
2021/03/27 02:30:14;;;;;;;12.18;10.00;;;12.00;99.90;;;;;;5078961;28;20016;-78
2021/03/27 02:32:55;;;;;;;11.10;9.85;;;11.90;99.90;;;;;;5091327;28;20366;-78
2021/03/27 02:35:47;;;;;;;12.10;10.55;;;11.90;99.90;;;;;;5084272;28;20036;-78
2021/03/27 02:38:38;;;;;;;13.65;10.52;;;12.00;99.90;;;;;;5071075;28;20028;-78
2021/03/27 02:41:40;;;;;;;11.48;10.27;;;12.10;99.90;;;;;;5090777;28;20075;-78
2021/03/27 02:44:22;;;;;;;12.93;10.00;;;12.00;99.90;;;;;;5073595;28;20396;-78
2021/03/27 02:46:52;;;;;;;11.02;9.93;;;12.00;99.90;;;;;;5071174;28;20115;-78
2021/03/27 02:49:53;;;;;;;13.75;10.13;;;12.00;99.90;;;;;;5076343;28;20036;-78
2021/03/27 02:53:06;;;;;;;11.20;9.77;;;12.00;99.90;;;;;;5050321;28;20532;-78
2021/03/27 02:55:56;;;;;;;11.85;9.80;;;12.10;99.90;;;;;;5050225;28;20456;-78
2021/03/27 02:58:32;;;;;;;12.35;10.40;;;12.20;99.90;;;;;;5050600;28;20119;-78
2021/03/27 03:01:31;;;;;;;10.68;9.57;;;12.20;99.90;;;;;;5034564;28;20074;-78
2021/03/27 03:04:19;;;;;;;12.98;8.98;;;12.20;99.90;;;;;;5050217;28;20032;-78
2021/03/27 03:07:01;;;;;;;11.40;9.20;;;12.20;99.90;;;;;;5049614;28;20478;-78
2021/03/27 03:09:50;;;;;;;9.88;8.88;;;12.20;99.90;;;;;;5050448;28;20029;-78
2021/03/27 03:12:37;;;;;;;10.93;8.48;;;12.10;99.90;;;;;;5050208;28;20025;-78
2021/03/27 03:15:26;;;;;;;10.65;8.32;;;12.10;99.90;;;;;;5043141;28;20548;-78
2021/03/27 03:17:57;;;;;;;10.77;8.40;;;12.00;99.90;;;;;;5049699;28;20124;-78
2021/03/27 03:20:44;;;;;;;6.80;4.90;;;12.00;99.90;;;;;;5049723;28;20052;-78
2021/03/27 03:23:52;;;;;;;4.80;3.20;;;11.70;99.90;;;;;;5045464;28;20018;-78
2021/03/27 03:26:23;;;;;;;5.03;1.90;;;11.40;99.90;;;;;;5055453;28;20446;-78
2021/03/27 03:28:54;;;;;;;3.25;1.55;;;11.00;99.90;;;;;;5088692;28;20020;-78
2021/03/27 03:31:39;;;;;;;3.08;1.45;;;10.70;99.90;;;;;;5078559;28;20472;-78
2021/03/27 03:34:14;;;;;;;5.00;1.13;;;10.70;99.90;;;;;;5080005;28;20021;-78
2021/03/27 03:37:01;;;;;;;2.45;1.17;;;10.60;99.90;;;;;;5088637;28;20046;-78
2021/03/27 03:39:52;;;;;;;3.28;1.23;;;10.50;99.90;;;;;;5079331;28;20016;-78
2021/03/27 03:42:24;;;;;;;2.97;1.10;;;10.40;99.90;;;;;;5091936;28;20123;-78
2021/03/27 03:45:05;;;;;;;4.43;1.20;;;10.30;99.90;;;;;;5091527;28;20095;-78
2021/03/27 03:47:31;;;;;;;5.63;1.20;;;10.10;99.90;;;;;;5091854;28;20028;-78
2021/03/27 03:50:14;;;;;;;5.53;1.33;;;10.20;99.90;;;;;;5091912;28;20027;-78
2021/03/27 03:53:03;;;;;;;4.72;1.00;;;10.10;99.90;;;;;;5075251;28;20016;-78
2021/03/27 03:56:05;;;;;;;4.15;1.10;;;10.00;99.90;;;;;;5091774;28;20039;-78
2021/03/27 03:58:48;;;;;;;4.57;1.10;;;10.00;99.90;;;;;;5076765;28;20029;-78
2021/03/27 04:01:26;;;;;;;5.43;1.02;;;10.00;99.90;;;;;;5073692;28;20092;-78
2021/03/27 04:04:05;;;;;;;5.15;1.30;;;10.10;99.90;;;;;;5085846;28;20059;-78
2021/03/27 04:06:33;;;;;;;5.68;1.23;;;10.20;99.90;;;;;;5080631;28;20060;-78
2021/03/27 04:09:01;;;;;;;5.55;1.10;;;10.10;99.90;;;;;;5094522;28;20019;-78
2021/03/27 04:11:36;;;;;;;4.90;1.17;;;10.10;99.90;;;;;;5089582;28;20136;-78
2021/03/27 04:14:18;;;;;;;2.72;1.00;;;10.10;99.90;;;;;;5087106;28;20026;-78
2021/03/27 04:16:47;;;;;;;4.57;1.00;;;10.10;99.90;;;;;;5095064;28;20055;-78
2021/03/27 04:19:22;;;;;;;4.97;1.33;;;9.90;99.90;;;;;;5095549;28;20089;-78
2021/03/27 04:22:14;;;;;;;5.22;1.17;;;10.00;99.90;;;;;;5095398;28;20043;-78
2021/03/27 04:24:55;;;;;;;6.13;1.20;;;10.00;99.90;;;;;;5095587;28;20062;-78
2021/03/27 04:27:29;;;;;;;4.25;1.00;;;10.00;99.90;;;;;;5080874;28;20024;-78
2021/03/27 04:30:00;;;;;;;6.63;1.30;;;10.00;99.90;;;;;;5084037;28;20066;-78
2021/03/27 04:32:50;;;;;;;9.20;1.52;;;10.00;99.90;;;;;;5091344;28;20086;-78
2021/03/27 04:35:16;;;;;;;5.18;1.42;;;10.00;99.90;;;;;;5080013;28;20016;-78
2021/03/27 04:38:12;;;;;;;8.38;1.80;;;9.80;99.90;;;;;;5095364;28;20024;-78
2021/03/27 04:40:46;;;;;;;4.90;1.45;;;9.90;99.90;;;;;;5093143;28;20039;-78
2021/03/27 04:43:34;;;;;;;5.75;1.25;;;9.90;99.90;;;;;;5078890;28;20024;-78
2021/03/27 04:46:15;;;;;;;3.25;1.05;;;9.90;99.90;;;;;;5084607;28;20029;-78
2021/03/27 04:48:53;;;;;;;7.95;1.23;;;10.00;99.90;;;;;;5091366;28;20028;-78
2021/03/27 04:51:31;;;;;;;5.15;1.30;;;10.10;99.90;;;;;;5094876;28;20015;-78
2021/03/27 04:54:10;;;;;;;5.20;1.15;;;10.10;99.90;;;;;;5095134;28;20032;-78
2021/03/27 04:56:42;;;;;;;5.28;1.30;;;10.10;99.90;;;;;;5094839;28;20058;-78
2021/03/27 04:59:35;;;;;;;4.22;1.17;;;10.00;99.90;;;;;;5076492;28;20017;-78
2021/03/27 05:02:24;;;;;;;4.57;1.00;;;9.90;99.90;;;;;;5084826;28;20051;-78
2021/03/27 05:04:59;;;;;;;6.18;1.33;;;9.90;99.90;;;;;;5090912;28;20040;-78
2021/03/27 05:07:56;;;;;;;2.72;1.27;;;9.90;99.90;;;;;;5079953;28;20028;-78
2021/03/27 05:10:33;;;;;;;5.03;1.60;;;10.00;99.90;;;;;;5059630;28;20052;-78
2021/03/27 05:13:02;;;;;;;5.78;1.00;;;10.10;99.90;;;;;;5069118;28;20082;-78
2021/03/27 05:15:44;;;;;;;4.38;1.10;;;10.10;99.90;;;;;;5066854;28;20091;-78
2021/03/27 05:18:21;;;;;;;3.80;1.15;;;10.10;99.90;;;;;;5063733;28;20111;-78
2021/03/27 05:20:53;;;;;;;4.32;1.00;;;10.00;99.90;;;;;;5067681;28;20044;-78
2021/03/27 05:23:49;;;;;;;5.70;1.30;;;9.90;99.90;;;;;;5073136;28;20032;-78
2021/03/27 05:26:53;;;;;;;4.72;1.70;;;9.90;99.90;;;;;;5064415;28;20048;-78
2021/03/27 05:29:38;;;;;;;2.38;1.00;;;9.90;99.90;;;;;;5080193;28;20365;-78
2021/03/27 05:32:16;;;;;;;6.40;1.33;;;9.90;99.90;;;;;;5063272;28;20028;-78
2021/03/27 05:34:50;;;;;;;5.80;1.20;;;10.00;99.90;;;;;;5068138;28;20033;-78
2021/03/27 05:37:15;;;;;;;5.90;1.40;;;10.10;99.90;;;;;;5072205;28;20037;-78
2021/03/27 05:40:01;;;;;;;9.77;1.10;;;10.10;99.90;;;;;;5072624;28;20392;-78
2021/03/27 05:42:45;;;;;;;4.55;1.20;;;10.10;99.90;;;;;;5072340;28;20039;-78
2021/03/27 05:45:14;;;;;;;5.72;1.25;;;10.00;99.90;;;;;;5071869;28;20492;-78
2021/03/27 05:47:45;;;;;;;5.65;1.38;;;10.00;99.90;;;;;;5080504;28;20092;-78
2021/03/27 05:50:40;;;;;;;6.70;1.40;;;10.00;99.90;;;;;;5094817;28;20028;-78
2021/03/27 05:53:33;;;;;;;4.60;1.38;;;9.90;99.90;;;;;;5105908;28;20046;-78
2021/03/27 05:56:31;;;;;;;2.67;1.08;;;9.80;99.90;;;;;;5073870;28;20033;-78
2021/03/27 05:58:57;;;;;;;4.68;1.30;;;9.90;99.90;;;;;;5090912;28;20027;-78
2021/03/27 06:01:43;;;;;;;5.82;1.33;;;10.10;99.90;;;;;;5077751;28;20016;-79
2021/03/27 06:04:30;;;;;;;8.23;1.52;;;10.10;99.90;;;;;;5084320;28;20040;-79
2021/03/27 06:07:14;;;;;;;4.85;1.35;;;10.10;99.90;;;;;;5090708;28;20028;-79
2021/03/27 06:10:11;;;;;;;6.38;1.30;;;10.10;99.90;;;;;;5079122;28;20393;-79
2021/03/27 06:13:14;;;;;;;5.93;1.30;;;10.10;99.90;;;;;;5094018;28;20020;-79
2021/03/27 06:16:01;;;;;;;6.60;1.75;;;10.20;99.90;;;;;;5080190;28;20038;-79
2021/03/27 06:18:45;;;;;;;7.47;2.35;;;10.20;99.90;;;;;;5094042;28;20103;-79
2021/03/27 06:21:19;;;;;;;6.93;1.67;;;10.10;99.90;;;;;;5094091;28;20035;-79
2021/03/27 06:24:17;;;;;;;5.45;1.23;;;10.20;99.90;;;;;;5094077;28;20032;-79
2021/03/27 06:27:01;;;;;;;5.95;1.23;;;10.00;99.90;;;;;;5091574;28;20063;-79
2021/03/27 06:29:54;;;;;;;8.15;1.50;;;10.10;99.90;;;;;;5093972;28;20036;-79
2021/03/27 06:32:41;;;;;;;7.70;1.65;;;10.20;99.90;;;;;;5099343;28;20026;-79
2021/03/27 06:35:16;;;;;;;7.47;1.67;;;10.30;99.90;;;;;;5088839;28;20035;-79
2021/03/27 06:37:50;;;;;;;4.22;1.58;;;10.40;99.90;;;;;;5111537;28;20019;-79
2021/03/27 06:40:44;;;;;;;7.63;1.85;;;10.40;99.90;;;;;;5112918;28;20506;-79
2021/03/27 06:43:36;;;;;;;7.07;1.33;;;10.50;99.90;;;;;;5099667;28;20055;-79
2021/03/27 06:46:11;;;;;;;6.00;1.48;;;10.60;99.90;;;;;;5069410;28;20118;-79
2021/03/27 06:49:07;;;;;;;5.25;1.90;;;10.50;99.90;;;;;;5077882;28;20357;-79
2021/03/27 06:51:49;;;;;;;6.07;1.50;;;10.60;99.90;;;;;;5070260;28;20519;-79
2021/03/27 06:54:36;;;;;;;6.40;1.33;;;10.50;99.90;;;;;;5069818;28;20024;-79
2021/03/27 06:57:01;;;;;;;7.13;1.23;;;10.40;99.90;;;;;;5070247;28;20123;-79
2021/03/27 07:00:04;;;;;;;5.93;1.40;;;10.30;99.90;;;;;;5069817;28;20111;-78
2021/03/27 07:02:57;;;;;;;4.07;1.50;;;10.50;99.90;;;;;;5069665;28;20032;-79
2021/03/27 07:05:28;;;;;;;4.57;1.92;;;10.50;99.90;;;;;;5070611;28;20032;-79
2021/03/27 07:07:59;;;;;;;4.97;1.42;;;10.50;99.90;;;;;;5070615;28;20037;-79
2021/03/27 07:11:03;;;;;;;8.07;1.50;;;10.50;99.90;;;;;;5069810;28;20087;-79
2021/03/27 07:13:59;;;;;;;5.22;1.60;;;10.40;99.90;;;;;;5070201;28;20087;-79
2021/03/27 07:16:36;;;;;;;4.68;1.48;;;10.40;99.90;;;;;;5069811;28;20048;-79
2021/03/27 07:19:32;;;;;;;4.18;1.20;;;10.30;99.90;;;;;;5060906;28;20112;-79
2021/03/27 07:22:33;;;;;;;8.30;1.52;;;10.20;99.90;;;;;;5070376;28;20085;-79
2021/03/27 07:25:33;;;;;;;5.25;1.25;;;10.10;99.90;;;;;;5055807;28;20048;-79
2021/03/27 07:28:17;;;;;;;4.28;1.70;;;10.00;99.90;;;;;;5091116;28;20058;-79
2021/03/27 07:31:11;;;;;;;4.68;1.25;;;10.10;99.90;;;;;;5076477;28;20035;-79
2021/03/27 07:34:04;;;;;;;4.72;1.23;;;10.20;99.90;;;;;;5092130;28;20020;-79
2021/03/27 07:36:39;;;;;;;7.30;1.80;;;10.50;99.90;;;;;;5091361;28;20553;-79
2021/03/27 07:39:39;;;;;;;9.18;1.65;;;10.30;99.90;;;;;;5092044;28;20024;-79
2021/03/27 07:42:14;;;;;;;6.70;1.90;;;10.40;99.90;;;;;;5092310;28;20028;-79
2021/03/27 07:44:58;;;;;;;6.32;1.45;;;10.40;99.90;;;;;;5091975;28;20016;-79
2021/03/27 07:47:38;;;;;;;6.63;1.40;;;10.60;99.90;;;;;;5092232;28;20046;-79
2021/03/27 07:50:41;;;;;;;6.38;1.35;;;10.80;99.90;;;;;;5092298;28;20013;-79
2021/03/27 07:53:31;;;;;;;5.10;1.65;;;10.80;99.90;;;;;;5078805;28;20051;-80
2021/03/27 07:56:06;;;;;;;5.45;1.40;;;10.90;99.90;;;;;;5092197;28;20012;-80
2021/03/27 07:59:02;;;;;;;8.27;1.75;;;11.00;99.90;;;;;;5089640;28;20031;-79
2021/03/27 08:01:57;;;;;;;5.22;1.40;;;11.00;99.90;;;;;;5081484;28;20026;-79
2021/03/27 08:04:38;;;;;;;8.63;1.30;;;11.00;99.90;;;;;;5091175;28;20159;-79
2021/03/27 08:07:27;;;;;;;4.22;1.40;;;11.30;99.90;;;;;;5077879;28;20020;-79
2021/03/27 08:10:18;;;;;;;5.38;1.30;;;11.30;99.90;;;;;;5091854;28;20032;-80
2021/03/27 08:12:58;;;;;;;4.60;1.35;;;11.30;99.90;;;;;;5091390;28;20019;-80
2021/03/27 08:15:55;;;;;;;4.40;1.20;;;11.30;99.90;;;;;;5083280;28;20048;-80
2021/03/27 08:18:29;;;;;;;5.53;1.60;;;11.40;99.90;;;;;;5087868;28;20025;-79
2021/03/27 08:21:02;;;;;;;5.50;1.35;;;11.30;99.90;;;;;;5081760;28;20127;-79
2021/03/27 08:23:43;;;;;;;5.38;1.20;;;11.60;99.90;;;;;;5091460;28;20020;-79
2021/03/27 08:26:38;;;;;;;4.72;1.40;;;11.90;99.90;;;;;;5091490;28;20109;-79
2021/03/27 08:29:44;;;;;;;5.22;1.42;;;12.00;99.90;;;;;;5071315;28;20082;-79
2021/03/27 08:32:34;;;;;;;5.22;1.40;;;11.80;99.90;;;;;;5086640;28;20432;-79
2021/03/27 08:35:24;;;;;;;4.82;1.50;;;11.50;99.90;;;;;;5091506;28;20502;-83
2021/03/27 08:38:15;;;;;;;4.82;1.30;;;11.50;99.90;;;;;;5079381;28;20031;-79
2021/03/27 08:41:19;;;;;;;7.05;1.10;;;11.60;99.90;;;;;;5090092;28;20028;-79
2021/03/27 08:44:11;;;;;;;5.72;1.33;;;11.30;99.90;;;;;;5090969;28;20236;-79
2021/03/27 08:47:12;;;;;;;5.38;1.30;;;11.20;99.90;;;;;;5053120;28;20033;-79
2021/03/27 08:49:51;;;;;;;4.20;1.25;;;11.70;99.90;;;;;;5062645;28;20033;-79
2021/03/27 08:52:31;;;;;;;5.30;1.20;;;11.80;99.90;;;;;;5067583;28;20033;-79
2021/03/27 08:55:31;;;;;;;5.30;1.20;;;11.60;99.90;;;;;;5072587;28;20028;-79
2021/03/27 08:58:17;;;;;;;5.07;1.30;;;11.40;99.90;;;;;;5072218;28;20033;-79
2021/03/27 09:01:16;;;;;;;5.10;1.25;;;11.60;99.90;;;;;;5055900;28;20060;-79
2021/03/27 09:04:14;;;;;;;6.57;1.20;;;12.40;99.90;;;;;;5072327;28;20041;-79
2021/03/27 09:07:01;;;;;;;3.58;1.10;;;12.80;99.90;;;;;;5055185;28;20040;-79
2021/03/27 09:09:54;;;;;;;8.52;1.50;;;12.80;99.90;;;;;;5064334;28;20061;-79
2021/03/27 09:12:38;;;;;;;5.68;1.83;;;13.30;99.90;;;;;;5067754;28;20028;-79
2021/03/27 09:15:28;;;;;;;6.43;1.50;;;13.50;99.90;;;;;;5072142;28;20427;-79
2021/03/27 09:18:20;;;;;;;6.40;1.40;;;13.50;99.90;;;;;;5060842;28;20528;-79
2021/03/27 09:21:14;;;;;;;6.35;1.50;;;14.10;99.90;;;;;;5069660;28;20563;-79
2021/03/27 09:24:29;;;;;;;7.00;1.60;;;14.50;99.90;;;;;;5083147;28;20063;-79
2021/03/27 09:27:39;;;;;;;5.03;1.35;;;15.10;99.90;;;;;;5051528;28;20061;-79
2021/03/27 09:30:18;;;;;;;3.58;1.23;;;15.70;99.90;;;;;;5064991;28;20090;-79
2021/03/27 09:32:53;;;;;;;6.15;1.17;;;15.80;99.90;;;;;;5071354;28;20397;-79
2021/03/27 09:35:53;;;;;;;4.90;1.30;;;14.90;99.90;;;;;;5071704;28;20025;-79
2021/03/27 09:38:44;;;;;;;4.40;1.20;;;15.20;99.90;;;;;;5071794;28;20028;-79
2021/03/27 09:41:12;;;;;;;3.83;1.33;;;21.50;99.90;;;;;;5071674;28;20033;-79
2021/03/27 09:43:48;;;;;;;4.72;1.42;;;25.10;99.90;;;;;;5071593;28;20047;-79
2021/03/27 09:46:51;;;;;;;6.60;1.35;;;27.60;99.90;;;;;;5071515;28;20039;-79
2021/03/27 09:49:33;;;;;;;2.83;1.05;;;30.20;99.90;;;;;;5057761;28;20158;-79
2021/03/27 09:52:24;;;;;;;4.50;1.40;;;28.90;99.90;;;;;;5060231;28;20048;-79
2021/03/27 09:55:13;;;;;;;4.72;1.23;;;27.80;99.90;;;;;;5053431;28;20082;-79
2021/03/27 09:58:00;;;;;;;3.72;1.20;;;26.90;99.90;;;;;;5071484;28;20555;-79
2021/03/27 10:00:47;;;;;;;4.30;1.63;;;23.30;99.90;;;;;;5071193;28;20107;-79
2021/03/27 10:03:38;;;;;;;5.03;1.50;;;24.10;99.90;;;;;;5077666;28;20070;-79
2021/03/27 10:06:13;;;;;;;5.97;1.50;;;24.50;99.90;;;;;;5092527;28;20028;-79
2021/03/27 10:08:59;;;;;;;3.80;1.50;;;20.60;99.90;;;;;;5092929;28;20499;-80
2021/03/27 10:11:35;;;;;;;6.22;1.48;;;26.80;99.90;;;;;;5079641;28;20376;-80
2021/03/27 10:14:31;;;;;;;6.13;1.40;;;28.30;99.90;;;;;;5080805;28;20028;-80
2021/03/27 10:17:06;;;;;;;5.43;1.65;;;24.00;99.90;;;;;;5088576;28;20024;-80
2021/03/27 10:20:04;;;;;;;4.85;1.33;;;24.50;99.90;;;;;;5078844;28;20524;-80
2021/03/27 10:22:49;;;;;;;2.53;1.13;;;19.70;99.90;;;;;;5086874;28;20454;-80
2021/03/27 10:25:25;;;;;;;4.95;1.48;;;18.50;99.90;;;;;;5091593;28;20066;-80
2021/03/27 10:28:21;;;;;;;4.50;1.88;;;21.20;99.90;;;;;;5080802;28;20033;-80
2021/03/27 10:30:54;;;;;;;6.53;1.52;;;28.50;99.90;;;;;;5087492;28;20106;-80
2021/03/27 10:33:39;;;;;;;5.80;1.65;;;24.10;99.90;;;;;;5070835;28;20381;-80
2021/03/27 10:36:21;;;;;;;5.25;1.45;;;20.70;99.90;;;;;;5071068;28;20110;-80
2021/03/27 10:39:05;;;;;;;4.55;1.30;;;24.00;99.90;;;;;;5087891;28;20082;-80
2021/03/27 10:42:03;;;;;;;2.15;1.00;;;27.80;99.90;;;;;;5090672;28;20111;-80
2021/03/27 10:44:28;;;;;;;3.08;1.33;;;29.50;99.90;;;;;;5076217;28;20025;-80
2021/03/27 10:47:38;;;;;;;3.58;1.40;;;29.60;99.90;;;;;;5087693;28;20062;-80
2021/03/27 10:50:26;;;;;;;4.70;1.38;;;31.40;99.90;;;;;;4991199;28;20034;-80
2021/03/27 10:53:13;;;;;;;4.78;1.52;;;30.50;99.90;;;;;;4989823;28;20070;-80
2021/03/27 10:55:53;;;;;;;3.28;1.20;;;31.50;99.90;;;;;;4979465;28;20398;-80
2021/03/27 10:58:56;;;;;;;3.05;1.50;;;33.40;99.90;;;;;;4991213;28;20146;-80
2021/03/27 11:01:48;;;;;;;2.50;1.60;;;34.80;99.90;;;;;;4996154;28;20040;-80
2021/03/27 11:04:35;;;;;;;3.38;1.33;;;37.10;99.90;;;;;;4998910;28;20506;-80
2021/03/27 11:07:24;;;;;;;2.78;1.10;;;37.50;99.90;;;;;;5006873;28;20040;-80
2021/03/27 11:10:11;;;;;;;2.67;1.13;;;35.40;99.90;;;;;;4999044;28;20507;-80
2021/03/27 11:12:48;;;;;;;4.15;1.33;;;30.90;99.90;;;;;;4995904;28;20041;-80
2021/03/27 11:15:20;;;;;;;5.03;1.40;;;34.40;99.90;;;;;;5007094;28;20127;-81
2021/03/27 11:17:49;;;;;;;4.53;1.40;;;33.40;99.90;;;;;;4990599;28;20026;-81
2021/03/27 11:20:33;;;;;;;4.43;1.75;;;32.80;99.90;;;;;;5016211;28;20044;-81
2021/03/27 11:23:22;;;;;;;4.30;1.60;;;29.80;99.90;;;;;;5075325;28;20179;-81
2021/03/27 11:26:30;;;;;;;5.40;1.77;;;25.80;99.90;;;;;;5084113;28;20029;-81
2021/03/27 11:29:32;;;;;;;4.68;1.42;;;22.70;99.90;;;;;;5094449;28;20089;-82
2021/03/27 11:32:17;;;;;;;4.53;1.73;;;27.80;99.90;;;;;;5087748;28;20069;-80
2021/03/27 11:35:17;;;;;;;4.47;1.58;;;26.90;99.90;;;;;;5092677;28;20020;-81
2021/03/27 11:38:02;;;;;;;5.97;1.60;;;26.60;99.90;;;;;;5088117;28;20530;-81
2021/03/27 11:40:39;;;;;;;7.22;2.78;;;30.60;99.90;;;;;;5094302;28;20059;-83
2021/03/27 11:43:10;;;;;;;3.15;1.50;;;31.70;99.90;;;;;;5092632;28;20024;-82
2021/03/27 11:45:42;;;;;;;3.63;1.55;;;29.20;99.90;;;;;;5094594;28;20020;-82
2021/03/27 11:48:26;;;;;;;5.18;1.67;;;28.70;99.90;;;;;;5100822;28;20019;-82
2021/03/27 11:51:00;;;;;;;4.30;1.80;;;31.20;99.90;;;;;;5093190;28;20404;-82
2021/03/27 11:53:44;;;;;;;4.22;1.70;;;34.70;99.90;;;;;;5092743;28;20032;-82
2021/03/27 11:56:27;;;;;;;3.63;1.33;;;34.30;99.90;;;;;;5091509;28;20024;-82
2021/03/27 12:02:24;;;;;;;3.05;1.40;;;29.90;99.90;;;;;;5049751;28;20560;-82
2021/03/27 12:05:23;;;;;;;3.80;1.50;;;31.60;99.90;;;;;;5044736;28;20451;-81
2021/03/27 12:08:13;;;;;;;2.00;1.10;;;35.10;99.90;;;;;;5036454;28;20128;-81
2021/03/27 12:11:00;;;;;;;5.20;1.70;;;35.40;99.90;;;;;;5042504;28;20029;-82
2021/03/27 12:13:43;;;;;;;4.85;1.42;;;36.70;99.90;;;;;;5029306;28;20037;-82
2021/03/27 12:16:49;;;;;;;5.28;1.88;;;31.70;99.90;;;;;;5037594;28;20039;-80
2021/03/27 12:19:17;;;;;;;5.15;1.52;;;30.10;99.90;;;;;;5032417;28;20029;-81
2021/03/27 12:22:06;;;;;;;3.50;1.65;;;30.70;99.90;;;;;;5043948;28;20033;-81
2021/03/27 12:24:41;;;;;;;3.13;1.08;;;33.50;99.90;;;;;;5033226;28;20406;-83
2021/03/27 12:27:18;;;;;;;3.30;1.27;;;35.00;99.90;;;;;;5033442;28;20042;-83
2021/03/27 12:29:58;;;;;;;3.60;1.30;;;36.50;99.90;;;;;;5062773;28;20039;-82
2021/03/27 12:32:42;;;;;;;3.65;1.40;;;32.40;99.90;;;;;;5041927;28;20396;-82
2021/03/27 12:35:10;;;;;;;5.13;1.55;;;26.90;99.90;;;;;;5053317;28;20056;-82
2021/03/27 12:38:06;;;;;;;3.20;1.30;;;28.00;99.90;;;;;;5051892;28;20544;-82
2021/03/27 12:40:39;;;;;;;3.35;1.10;;;32.00;99.90;;;;;;5096302;28;20531;-82
2021/03/27 12:43:07;;;;;;;3.80;1.52;;;33.10;99.90;;;;;;5094751;28;20058;-81
2021/03/27 12:45:54;;;;;;;3.17;1.48;;;33.70;99.90;;;;;;5099744;28;20028;-81
2021/03/27 12:48:46;;;;;;;4.68;1.50;;;33.60;99.90;;;;;;5097599;28;20023;-81
2021/03/27 12:51:41;;;;;;;5.20;1.52;;;29.50;99.90;;;;;;5101967;28;20077;-82
2021/03/27 12:54:35;;;;;;;3.97;1.50;;;28.90;99.90;;;;;;5083769;28;20103;-81
2021/03/27 12:57:39;;;;;;;2.97;1.10;;;31.70;99.90;;;;;;5098090;28;20353;-81
2021/03/27 13:00:11;;;;;;;3.55;1.30;;;29.30;99.90;;;;;;5095260;28;20124;-81
2021/03/27 13:02:57;;;;;;;3.50;1.08;;;27.40;99.90;;;;;;5088961;28;20032;-81
2021/03/27 13:05:46;;;;;;;6.22;1.63;;;29.10;99.90;;;;;;5093088;28;20020;-81
2021/03/27 13:08:18;;;;;;;3.72;1.65;;;31.40;99.90;;;;;;5098300;28;20032;-81
2021/03/27 13:10:48;;;;;;;3.88;1.30;;;31.30;99.90;;;;;;5100146;28;20024;-81
2021/03/27 13:13:29;;;;;;;3.38;1.50;;;31.30;99.90;;;;;;5099046;28;20023;-81
2021/03/27 13:16:26;;;;;;;1.88;1.02;;;31.80;99.90;;;;;;5087575;28;20051;-81
2021/03/27 13:19:06;;;;;;;2.95;1.48;;;31.10;99.90;;;;;;5086809;28;20077;-79
2021/03/27 13:21:54;;;;;;;2.97;1.30;;;30.60;99.90;;;;;;5092865;28;20107;-79
2021/03/27 13:24:35;;;;;;;4.57;1.48;;;31.00;99.90;;;;;;5094584;28;20440;-79
2021/03/27 13:27:11;;;;;;;3.33;1.58;;;29.80;99.90;;;;;;5087777;28;20077;-79
2021/03/27 13:29:42;;;;;;;3.13;1.25;;;30.00;99.90;;;;;;5094192;28;20024;-79
2021/03/27 13:32:29;;;;;;;3.70;1.10;;;26.40;99.90;;;;;;5094470;28;20092;-79
2021/03/27 13:35:21;;;;;;;3.42;1.30;;;27.90;99.90;;;;;;5086315;28;20020;-79
2021/03/27 13:37:52;;;;;;;3.22;1.50;;;28.70;99.90;;;;;;5094038;28;20020;-79
2021/03/27 13:40:26;;;;;;;3.88;1.20;;;27.90;99.90;;;;;;5094327;28;20451;-79
2021/03/27 13:43:10;;;;;;;1.58;1.20;;;27.10;99.90;;;;;;5086019;28;20016;-79
2021/03/27 13:45:42;;;;;;;5.03;1.23;;;25.80;99.90;;;;;;5093688;28;20446;-79
2021/03/27 13:48:28;;;;;;;3.13;1.42;;;25.00;99.90;;;;;;5094014;28;20078;-79
2021/03/27 13:51:16;;;;;;;3.95;1.33;;;26.30;99.90;;;;;;5086350;28;20502;-79
2021/03/27 13:54:06;;;;;;;3.25;1.10;;;26.90;99.90;;;;;;5093690;28;20035;-79
2021/03/27 13:56:47;;;;;;;2.72;1.27;;;27.20;99.90;;;;;;5093247;28;20031;-79
2021/03/27 13:59:18;;;;;;;2.20;0.90;;;27.70;99.90;;;;;;5094234;28;20016;-79
2021/03/27 14:01:50;;;;;;;3.13;1.30;;;27.30;99.90;;;;;;5093463;28;20039;-79
2021/03/27 14:04:35;;;;;;;3.75;1.10;;;26.70;99.90;;;;;;5093914;28;20024;-79
2021/03/27 14:07:16;;;;;;;2.17;1.02;;;26.80;99.90;;;;;;5086423;28;20392;-79
2021/03/27 14:10:02;;;;;;;2.97;1.23;;;26.20;99.90;;;;;;5093093;28;20020;-79
2021/03/27 14:12:43;;;;;;;2.85;1.13;;;26.40;99.90;;;;;;5093546;28;20441;-79